Latest Weather Observations for Noonamah

IDD60901

Issued at 1:41 pm CST Monday 22 July 2024 (issued every 10 minutes, with the page automatically refreshed every 10 minutes)

About weather observations | Map of Darwin area stations | Latest observations for Darwin area | Other Formats
Station Details ID: 014314 Name: NOONAMAH AIRSTRIP Lat: -12.61 Lon: 131.05 Height: 17.5 m
Data from the previous 72 hours. | See also: Recent months at Noonamah
Date/Time
CST
Temp
°C
App
Temp
°C
Dew
Point
°C
Rel
Hum
%
Delta-T
°C
Wind Press
QNH
hPa
Press
MSL
hPa
Rain since
9am
mm
Dir  Spd
km/h
Gust
km/h
Spd
kts
Gust
kts
22/01:30pm 30.6 25.3 1.9 16 14.2 E 19 28 10 15 1015.2 1015.1 0.0
22/01:00pm 30.1 24.9 2.4 17 13.8 E 19 28 10 15 1015.7 1015.6 0.0
22/12:30pm 29.8 24.5 2.1 17 13.7 E 19 33 10 18 1016.2 1016.1 0.0
22/12:00pm 29.1 23.2 1.6 17 13.4 SE 22 37 12 20 1016.6 1016.5 0.0
22/11:30am 28.3 22.9 2.5 19 12.7 ESE 20 35 11 19 1017.1 1017.0 0.0
22/11:00am 27.1 21.9 3.6 22 11.7 ESE 20 32 11 17 1017.5 1017.4 0.0
22/10:30am 26.0 20.9 3.9 24 11.0 E 20 32 11 17 1017.9 1017.8 0.0
22/10:00am 24.9 21.2 4.6 27 10.2 SE 13 22 7 12 1018.0 1017.9 0.0
22/09:30am 23.0 18.6 5.0 31 8.9 SE 17 24 9 13 1018.2 1018.1 0.0
22/09:00am 21.5 18.2 6.6 38 7.6 SE 13 20 7 11 1018.2 1018.1 0.0
22/08:30am 17.3 16.6 10.2 63 3.8 E 4 6 2 3 1017.9 1017.8 0.0
22/08:00am 14.3 14.4 10.3 77 2.1 CALM 0 0 0 0 1017.8 1017.7 0.0
22/07:30am 11.6 11.4 9.0 84 1.3 CALM 0 0 0 0 1017.6 1017.5 0.0
22/07:00am 11.6 11.3 8.8 83 1.4 CALM 0 0 0 0 1017.4 1017.3 0.0
22/06:30am 12.2 12.0 9.2 82 1.5 CALM 0 0 0 0 1017.2 1017.1 0.0
22/06:00am 12.5 12.4 9.5 82 1.5 CALM 0 0 0 0 1017.1 1017.0 0.0
22/05:30am 12.8 12.7 9.6 81 1.6 CALM 0 2 0 1 1016.9 1016.8 0.0
22/05:00am 13.2 12.1 9.8 80 1.7 E 6 6 3 3 1016.7 1016.6 0.0
22/04:30am 13.1 11.9 9.5 79 1.8 E 6 6 3 3 1016.6 1016.5 0.0
22/04:00am 13.7 12.9 9.7 77 2.1 ESE 4 6 2 3 1016.4 1016.3 0.0
22/03:30am 14.1 14.2 10.1 77 2.1 CALM 0 0 0 0 1016.5 1016.4 0.0
22/03:00am 14.9 14.7 10.5 75 2.3 SE 2 4 1 2 1016.6 1016.5 0.0
22/02:30am 15.2 14.6 10.4 73 2.5 SE 4 4 2 2 1016.7 1016.6 0.0
22/02:00am 15.2 15.4 10.4 73 2.5 CALM 0 0 0 0 1016.8 1016.7 0.0
22/01:30am 15.3 15.5 10.5 73 2.5 CALM 0 0 0 0 1017.0 1016.9 0.0
22/01:00am 15.6 15.4 10.6 72 2.6 ESE 2 4 1 2 1017.1 1017.0 0.0
22/12:30am 15.7 15.9 10.5 71 2.7 CALM 0 0 0 0 1017.2 1017.1 0.0
22/12:00am 15.7 15.8 10.0 69 3.0 CALM 0 0 0 0 1017.2 1017.1 0.0
 
Date/Time
CST
Temp
°C
App
Temp
°C
Dew
Point
°C
Rel
Hum
%
Delta-T
°C
Wind Press
QNH
hPa
Press
MSL
hPa
Rain since
9am
mm
Dir  Spd
km/h
Gust
km/h
Spd
kts
Gust
kts
21/11:30pm 16.2 16.3 10.3 68 3.1 CALM 0 0 0 0 1017.1 1017.0 0.0
21/11:00pm 16.5 16.3 10.4 67 3.2 SSW 2 6 1 3 1017.0 1016.9 0.0
21/10:30pm 17.0 16.7 10.1 64 3.6 SSE 2 6 1 3 1016.8 1016.7 0.0
21/10:00pm 18.1 18.2 10.0 59 4.3 CALM 0 0 0 0 1016.7 1016.6 0.0
21/09:30pm 18.5 18.5 9.8 57 4.6 CALM 0 0 0 0 1016.6 1016.5 0.0
21/09:00pm 19.5 19.5 9.7 53 5.2 CALM 0 0 0 0 1016.3 1016.2 0.0
21/08:30pm 21.2 20.5 10.1 49 6.0 ESE 4 6 2 3 1016.0 1015.9 0.0
21/08:00pm 23.0 22.2 9.8 43 7.2 E 4 6 2 3 1015.5 1015.4 0.0
21/07:30pm 24.1 22.9 10.4 42 7.6 NE 7 9 4 5 1015.1 1015.0 0.0
21/07:00pm 24.4 23.0 7.1 33 9.0 SE 4 4 2 2 1014.6 1014.5 0.0
21/06:30pm 28.1 27.4 6.8 26 11.3 CALM 0 2 0 1 1014.1 1014.0 0.0
21/06:00pm 29.9 27.5 5.2 21 12.9 ESE 7 9 4 5 1013.9 1013.8 0.0
21/05:30pm 30.8 27.4 3.8 18 13.8 ESE 11 15 6 8 1013.7 1013.6 0.0
21/05:00pm 30.9 27.8 3.8 18 13.9 ENE 9 13 5 7 1013.6 1013.5 0.0
21/04:30pm 31.2 28.2 4.1 18 14.0 ENE 9 17 5 9 1013.5 1013.4 0.0
21/04:00pm 31.5 28.2 2.7 16 14.5 ENE 9 17 5 9 1013.6 1013.5 0.0
21/03:30pm 31.3 28.2 1.6 15 14.7 NE 7 17 4 9 1013.8 1013.7 0.0
21/03:00pm 31.1 26.7 0.5 14 14.8 ENE 13 24 7 13 1014.2 1014.1 0.0
21/02:30pm 30.5 26.2 1.0 15 14.4 ENE 13 22 7 12 1014.6 1014.5 0.0
21/02:00pm 30.8 26.1 1.2 15 14.5 E 15 24 8 13 1014.9 1014.8 0.0
21/01:30pm 30.8 25.8 1.2 15 14.5 E 17 26 9 14 1015.3 1015.2 0.0
21/01:00pm 30.4 25.7 0.9 15 14.3 ENE 15 33 8 18 1015.7 1015.6 0.0
21/12:30pm 29.9 25.2 3.0 18 13.5 E 17 26 9 14 1016.1 1016.0 0.0
21/12:00pm 29.7 25.0 2.9 18 13.4 E 17 26 9 14 1016.7 1016.6 0.0
21/11:30am 29.0 23.6 2.3 18 13.2 E 20 32 11 17 1017.1 1017.0 0.0
21/11:00am 27.4 22.5 5.1 24 11.4 E 20 33 11 18 1017.5 1017.4 0.0
21/10:30am 26.7 22.4 5.1 25 11.0 E 17 26 9 14 1017.8 1017.7 0.0
21/10:00am 25.6 22.0 6.8 30 9.8 ESE 15 24 8 13 1018.0 1017.9 0.0
21/09:30am 24.1 21.5 7.7 35 8.6 E 11 20 6 11 1018.3 1018.2 0.0
21/09:00am 20.9 18.8 8.2 44 6.6 E 9 13 5 7 1018.3 1018.2 0.0
21/08:30am 17.8 16.2 7.8 52 5.1 ENE 6 7 3 4 1018.5 1018.4 0.0
21/08:00am 13.6 12.8 9.8 78 2.0 E 4 4 2 2 1018.3 1018.2 0.0
21/07:30am 11.0 10.5 9.3 89 0.8 ESE 2 6 1 3 1018.0 1017.9 0.0
21/07:00am 10.3 9.9 8.4 88 0.9 CALM 0 0 0 0 1017.6 1017.5 0.0
21/06:30am 10.9 10.6 8.8 87 1.0 CALM 0 0 0 0 1017.5 1017.4 0.0
21/06:00am 11.1 10.9 9.0 87 1.0 CALM 0 0 0 0 1017.3 1017.2 0.0
21/05:30am 11.5 11.4 9.6 88 1.0 CALM 0 0 0 0 1017.2 1017.1 0.0
21/05:00am 11.7 11.6 9.4 86 1.2 CALM 0 0 0 0 1017.1 1017.0 0.0
21/04:30am 11.7 11.7 9.8 88 1.0 CALM 0 0 0 0 1016.8 1016.7 0.0
21/04:00am 12.1 12.1 9.8 86 1.2 CALM 0 0 0 0 1016.7 1016.6 0.0
21/03:30am 12.5 12.6 10.2 86 1.2 CALM 0 0 0 0 1016.5 1016.4 0.0
21/03:00am 12.7 12.9 10.4 86 1.2 CALM 0 0 0 0 1016.5 1016.4 0.0
21/02:30am 13.0 13.2 10.5 85 1.3 CALM 0 0 0 0 1016.7 1016.6 0.0
21/02:00am 13.3 13.5 10.7 84 1.4 CALM 0 0 0 0 1016.7 1016.6 0.0
21/01:30am 13.6 14.0 11.1 85 1.3 CALM 0 0 0 0 1016.7 1016.6 0.0
21/01:00am 14.0 14.4 11.2 83 1.5 CALM 0 0 0 0 1017.0 1016.9 0.0
21/12:30am 14.8 15.2 11.4 80 1.8 CALM 0 0 0 0 1017.0 1016.9 0.0
21/12:00am 15.3 15.6 12.2 82 1.7 S 2 4 1 2 1017.0 1016.9 0.0
 
Date/Time
CST
Temp
°C
App
Temp
°C
Dew
Point
°C
Rel
Hum
%
Delta-T
°C
Wind Press
QNH
hPa
Press
MSL
hPa
Rain since
9am
mm
Dir  Spd
km/h
Gust
km/h
Spd
kts
Gust
kts
20/11:30pm 15.6 15.6 12.4 81 1.8 SE 4 7 2 4 1017.0 1016.9 0.0
20/11:00pm 16.5 17.3 12.5 77 2.2 CALM 0 0 0 0 1017.0 1016.9 0.0
20/10:30pm 17.3 18.3 13.2 77 2.3 CALM 0 4 0 2 1017.1 1017.0 0.0
20/10:00pm 18.2 18.9 12.2 68 3.3 CALM 0 0 0 0 1017.0 1016.9 0.0
20/09:30pm 19.5 20.7 13.7 69 3.3 CALM 0 0 0 0 1016.8 1016.7 0.0
20/09:00pm 20.9 21.7 13.8 64 4.1 W 2 4 1 2 1016.4 1016.3 0.0
20/08:30pm 21.6 22.2 14.3 63 4.3 W 4 6 2 3 1016.1 1016.0 0.0
20/08:00pm 23.1 23.5 14.7 59 5.0 W 6 9 3 5 1015.7 1015.6 0.0
20/07:30pm 23.7 23.5 11.7 47 6.8 WNW 4 6 2 3 1015.2 1015.1 0.0
20/07:00pm 25.5 25.7 13.0 46 7.3 WNW 4 9 2 5 1014.7 1014.6 0.0
20/06:30pm 27.4 26.9 12.2 39 8.8 NW 6 11 3 6 1014.3 1014.2 0.0
20/06:00pm 30.4 28.5 4.9 20 13.3 S 4 7 2 4 1013.8 1013.7 0.0
20/05:30pm 30.6 27.7 4.4 19 13.5 SSE 9 17 5 9 1013.5 1013.4 0.0
20/05:00pm 31.0 28.7 4.7 19 13.7 E 6 15 3 8 1013.2 1013.1 0.0
20/04:30pm 31.1 28.6 4.8 19 13.7 SE 7 17 4 9 1013.0 1012.9 0.0
20/04:00pm 31.2 28.9 5.6 20 13.6 S 7 13 4 7 1013.0 1012.9 0.0
20/03:30pm 31.0 29.5 6.8 22 13.1 SE 4 7 2 4 1013.2 1013.1 0.0
20/03:00pm 29.8 27.9 6.5 23 12.4 SE 6 15 3 8 1013.5 1013.4 0.0
20/02:30pm 30.1 27.8 7.3 24 12.3 E 9 20 5 11 1014.0 1013.9 0.0
20/02:00pm 30.3 27.9 6.9 23 12.6 SSE 9 19 5 10 1014.4 1014.3 0.0
20/01:30pm 29.9 27.0 6.5 23 12.5 E 11 19 6 10 1014.9 1014.8 0.0
20/01:00pm 28.6 26.0 6.1 24 11.8 ESE 9 19 5 10 1015.4 1015.3 0.0
20/12:30pm 28.4 25.6 7.1 26 11.4 E 11 20 6 11 1015.9 1015.8 0.0
20/12:00pm 27.9 24.9 7.7 28 10.9 ESE 13 20 7 11 1016.5 1016.4 0.0
20/11:30am 26.8 24.0 8.7 32 9.8 E 13 19 7 10 1017.0 1016.9 0.0
20/11:00am 26.1 23.0 9.0 34 9.3 E 15 22 8 12 1017.5 1017.4 0.0
20/10:30am 25.2 21.9 9.5 37 8.6 E 17 24 9 13 1017.7 1017.6 0.0
20/10:00am 24.2 21.3 9.8 40 7.9 E 15 20 8 11 1017.9 1017.8 0.0
20/09:30am 23.4 20.7 9.0 40 7.7 E 13 24 7 13 1017.8 1017.7 0.0
20/09:00am 21.8 19.1 7.2 39 7.5 ESE 11 17 6 9 1017.5 1017.4 0.0
20/08:30am 19.3 17.0 5.7 41 6.7 SE 7 13 4 7 1017.1 1017.0 0.0
20/08:00am 16.3 14.1 5.3 48 5.3 SE 6 7 3 4 1016.6 1016.5 0.0
20/07:30am 11.7 10.1 8.0 78 1.8 SSE 6 6 3 3 1016.2 1016.1 0.0
20/07:00am 10.9 9.7 8.1 83 1.4 ESE 4 4 2 2 1015.7 1015.6 0.0
20/06:30am 10.9 10.1 8.1 83 1.4 ESE 2 6 1 3 1015.5 1015.4 0.0
20/06:00am 10.7 10.3 8.3 85 1.2 CALM 0 0 0 0 1015.3 1015.2 0.0
20/05:30am 10.6 10.1 8.0 84 1.3 CALM 0 0 0 0 1015.1 1015.0 0.0
20/05:00am 10.5 10.1 8.4 87 1.0 CALM 0 0 0 0 1015.1 1015.0 0.0
20/04:30am 10.8 10.4 8.4 85 1.2 CALM 0 0 0 0 1015.0 1014.9 0.0
20/04:00am 10.7 10.3 8.1 84 1.3 CALM 0 0 0 0 1015.1 1015.0 0.0
20/03:30am 10.9 10.5 8.1 83 1.4 CALM 0 0 0 0 1015.4 1015.3 0.0
20/03:00am 11.4 11.0 8.4 82 1.5 CALM 0 0 0 0 1015.8 1015.7 0.0
20/02:30am 11.2 10.9 8.6 84 1.3 CALM 0 0 0 0 1016.0 1015.9 0.0
20/02:00am 11.9 11.7 8.9 82 1.5 CALM 0 2 0 1 1016.2 1016.1 0.0
20/01:30am 12.4 12.3 9.6 83 1.4 CALM 0 0 0 0 1016.6 1016.5 0.0
20/01:00am 12.7 12.6 9.5 81 1.6 CALM 0 0 0 0 1016.6 1016.5 0.0
20/12:30am 12.9 12.7 9.2 78 1.9 CALM 0 0 0 0 1016.6 1016.5 0.0
20/12:00am 13.7 13.6 9.6 76 2.1 CALM 0 0 0 0 1016.5 1016.4 0.0
 
Date/Time
CST
Temp
°C
App
Temp
°C
Dew
Point
°C
Rel
Hum
%
Delta-T
°C
Wind Press
QNH
hPa
Press
MSL
hPa
Rain since
9am
mm
Dir  Spd
km/h
Gust
km/h
Spd
kts
Gust
kts
19/11:30pm 14.6 14.7 10.2 75 2.3 CALM 0 0 0 0 1016.6 1016.5 0.0
19/11:00pm 15.1 15.0 9.5 69 2.9 CALM 0 0 0 0 1016.9 1016.8 0.0
19/10:30pm 15.9 15.9 9.8 67 3.2 CALM 0 0 0 0 1017.1 1017.0 0.0
19/10:00pm 17.0 16.3 11.5 70 3.0 SSW 6 11 3 6 1017.1 1017.0 0.0
19/09:30pm 16.2 15.4 9.8 66 3.3 SW 4 4 2 2 1016.7 1016.6 0.0
19/09:00pm 17.5 16.9 10.4 63 3.8 NE 4 6 2 3 1016.5 1016.4 0.0
19/08:30pm 18.0 17.9 9.4 57 4.5 CALM 0 0 0 0 1016.2 1016.1 0.0
19/08:00pm 19.4 19.0 9.9 54 5.1 NNE 2 4 1 2 1015.9 1015.8 0.0
19/07:30pm 20.9 19.9 10.4 51 5.7 NE 6 7 3 4 1015.5 1015.4 0.0
19/07:00pm 22.5 21.7 9.6 44 7.0 N 4 6 2 3 1015.2 1015.1 0.0
19/06:30pm 25.1 23.9 6.3 30 9.7 NE 2 6 1 3 1014.8 1014.7 0.0
19/06:00pm 26.8 24.5 4.6 24 11.2 ENE 6 9 3 5 1014.4 1014.3 0.0
19/05:30pm 27.8 25.3 3.5 21 12.2 E 6 11 3 6 1014.1 1014.0 0.0
19/05:00pm 27.9 24.7 2.9 20 12.4 ESE 9 15 5 8 1013.8 1013.7 0.0
19/04:30pm 28.2 25.3 2.4 19 12.7 S 7 15 4 8 1013.9 1013.8 0.0
19/04:00pm 28.5 25.6 2.7 19 12.8 E 7 20 4 11 1014.0 1013.9 0.0
19/03:30pm 28.0 24.7 2.2 19 12.6 SE 9 19 5 10 1014.2 1014.1 0.0
19/03:00pm 27.8 24.8 2.1 19 12.5 E 7 15 4 8 1014.5 1014.4 0.0
19/02:30pm 27.4 24.0 1.8 19 12.4 E 9 19 5 10 1015.0 1014.9 0.0
19/02:00pm 27.1 23.8 2.2 20 12.1 ENE 9 20 5 11 1015.6 1015.5 0.0

Latest Capital City Observations: Canberra | Sydney | Melbourne | Brisbane | Adelaide | Perth | Hobart | Darwin

Other formats

Comma delimited format used in spreadsheet applications
http://www.bom.gov.au/fwo/IDD60901/IDD60901.94105.axf

JavaScript Object Notation format (JSON) in row-major order
http://www.bom.gov.au/fwo/IDD60901/IDD60901.94105.json

Data quality

Most of these data are generated automatically and are frequently updated. Quality checks on data are not normally performed. It is possible for incorrect values to appear. Refer to information at About Latest Weather Observations and please check the disclaimer before using these data.